createdAt,value
2022-12-03T02:38:15.464Z,9.10
2022-12-03T02:39:15.399Z,9.40
2022-12-03T02:40:15.378Z,10.00
2022-12-03T02:41:15.386Z,11.00
2022-12-03T02:42:15.358Z,11.60
2022-12-03T02:43:15.359Z,11.40
2022-12-03T02:44:15.355Z,11.50
2022-12-03T02:45:15.366Z,12.10
2022-12-03T02:46:15.382Z,10.70
2022-12-03T02:47:15.339Z,12.10
2022-12-03T02:48:15.430Z,11.50
2022-12-03T02:49:15.269Z,11.70
2022-12-03T02:50:15.256Z,12.00
2022-12-03T02:51:15.241Z,12.00
2022-12-03T02:52:15.250Z,11.80
2022-12-03T02:53:15.246Z,11.60
2022-12-03T02:54:15.223Z,11.70
2022-12-03T02:55:15.190Z,12.00
2022-12-03T02:56:15.174Z,11.30
2022-12-03T02:57:15.190Z,11.70
2022-12-03T02:58:15.172Z,12.30
2022-12-03T02:59:15.158Z,12.10
2022-12-03T03:00:15.127Z,12.50
2022-12-03T03:01:15.229Z,12.20
2022-12-03T03:02:15.204Z,11.40
2022-12-03T03:03:15.096Z,11.60
2022-12-03T03:04:15.100Z,12.20
2022-12-03T03:05:15.086Z,12.00
2022-12-03T03:06:15.061Z,12.30
2022-12-03T03:07:15.057Z,11.30
2022-12-03T03:08:15.125Z,11.60
2022-12-03T03:09:15.023Z,11.60
2022-12-03T03:10:15.057Z,11.20
2022-12-03T03:11:14.999Z,12.30
2022-12-03T03:12:14.966Z,10.70
2022-12-03T03:13:14.974Z,12.50
2022-12-03T03:14:14.955Z,11.00
2022-12-03T03:15:14.959Z,11.70
2022-12-03T03:16:14.993Z,11.50
2022-12-03T03:17:14.914Z,11.50
2022-12-03T03:18:14.894Z,11.80
2022-12-03T03:19:14.915Z,11.00
2022-12-03T03:20:14.877Z,11.70
2022-12-03T03:21:14.886Z,11.70
2022-12-03T03:22:14.828Z,12.00
2022-12-03T03:23:14.842Z,11.50
2022-12-03T03:24:14.830Z,11.20
2022-12-03T03:25:14.794Z,12.10
2022-12-03T03:26:14.830Z,11.40
2022-12-03T03:27:14.792Z,11.40
2022-12-03T03:28:14.738Z,12.20
2022-12-03T03:29:14.785Z,11.80
2022-12-03T03:30:14.727Z,11.40
2022-12-03T03:31:14.845Z,11.30
2022-12-03T03:32:14.690Z,12.60
2022-12-03T03:33:14.717Z,11.40
2022-12-03T03:34:14.681Z,11.20
2022-12-03T03:35:14.731Z,11.70
2022-12-03T03:36:14.687Z,12.10
2022-12-03T03:37:14.635Z,11.40
2022-12-03T03:38:14.649Z,12.00
2022-12-03T03:39:14.621Z,12.10
2022-12-03T03:40:14.585Z,11.60
2022-12-03T03:41:14.606Z,11.20
2022-12-03T03:42:14.584Z,11.70
2022-12-03T03:43:14.567Z,11.20
2022-12-03T03:44:14.577Z,12.00
2022-12-03T03:45:14.565Z,12.30
2022-12-03T03:46:14.653Z,11.10
2022-12-03T03:47:14.512Z,11.60
2022-12-03T03:48:14.513Z,11.80
2022-12-03T03:49:14.503Z,11.40
2022-12-03T03:50:14.494Z,11.20
2022-12-03T03:51:14.468Z,11.50
2022-12-03T03:52:14.440Z,12.40
2022-12-03T03:53:14.421Z,11.60
2022-12-03T03:54:14.665Z,11.70
2022-12-03T03:55:14.386Z,11.60
2022-12-03T03:56:14.411Z,11.40
2022-12-03T03:57:14.415Z,11.70
2022-12-03T03:58:14.364Z,12.10
2022-12-03T03:59:14.352Z,12.10
2022-12-03T04:00:14.319Z,12.40
2022-12-03T04:01:14.340Z,12.60
2022-12-03T04:02:14.307Z,12.30
2022-12-03T04:03:14.304Z,12.30
2022-12-03T04:04:14.420Z,11.50
2022-12-03T04:05:14.270Z,11.20
2022-12-03T04:06:14.220Z,11.50
2022-12-03T04:07:14.230Z,11.60
2022-12-03T04:08:14.357Z,10.50
2022-12-03T04:09:14.204Z,12.20
2022-12-03T04:10:14.194Z,11.40
2022-12-03T04:11:14.172Z,10.90
2022-12-03T04:12:14.172Z,12.20
2022-12-03T04:13:14.135Z,11.50
2022-12-03T04:14:14.166Z,12.30
2022-12-03T04:15:14.152Z,11.30
2022-12-03T04:16:14.165Z,11.70
2022-12-03T04:17:14.125Z,11.80
2022-12-03T04:18:14.109Z,11.40
2022-12-03T04:19:14.078Z,12.60
2022-12-03T04:20:14.067Z,11.20
2022-12-03T04:21:14.080Z,11.90
2022-12-03T04:22:14.060Z,11.70
2022-12-03T04:23:14.056Z,11.60
2022-12-03T04:24:14.036Z,11.10
2022-12-03T04:25:13.996Z,12.40
2022-12-03T04:26:13.997Z,12.50
2022-12-03T04:27:13.971Z,11.90
2022-12-03T04:28:13.970Z,11.80
2022-12-03T04:29:13.931Z,11.90
2022-12-03T04:30:13.947Z,11.70
2022-12-03T04:31:13.969Z,11.90
2022-12-03T04:32:13.921Z,11.10
2022-12-03T04:33:13.993Z,12.50
2022-12-03T04:34:13.880Z,11.90
2022-12-03T04:35:13.952Z,12.50
2022-12-03T04:36:13.838Z,11.90
2022-12-03T04:37:13.892Z,11.80
2022-12-03T04:38:13.830Z,11.50
2022-12-03T04:39:13.842Z,12.00
2022-12-03T04:40:13.802Z,11.60
2022-12-03T04:41:13.779Z,11.80
2022-12-03T04:42:13.787Z,11.30
2022-12-03T04:43:13.753Z,12.30
2022-12-03T04:44:13.736Z,11.40
2022-12-03T04:45:13.778Z,11.40
2022-12-03T04:46:13.784Z,11.80
2022-12-03T04:47:13.704Z,11.80
2022-12-03T04:48:13.739Z,11.70
2022-12-03T04:49:13.693Z,12.00
2022-12-03T04:50:13.687Z,12.00
2022-12-03T04:51:13.666Z,11.80
2022-12-03T04:52:13.637Z,11.40
2022-12-03T04:54:38.193Z,14.80
2022-12-03T04:55:37.885Z,15.30
2022-12-03T04:56:37.904Z,14.80
2022-12-03T04:57:37.857Z,12.90
2022-12-03T05:01:25.753Z,12.00
2022-12-03T05:02:35.836Z,12.00
2022-12-03T05:05:03.355Z,14.70
2022-12-03T05:06:03.271Z,15.10
2022-12-03T05:07:03.247Z,11.10
2022-12-03T05:08:03.283Z,11.90
2022-12-03T05:09:03.254Z,12.30
2022-12-03T05:10:03.180Z,11.80
2022-12-03T05:11:03.180Z,11.10
2022-12-03T05:12:03.190Z,12.50
2022-12-03T05:13:03.130Z,12.50
2022-12-03T05:14:03.124Z,12.10
2022-12-03T05:15:03.112Z,12.40
2022-12-03T05:16:03.087Z,11.90
2022-12-03T05:17:03.182Z,11.50
2022-12-03T05:18:03.083Z,10.80
2022-12-03T05:19:03.135Z,11.60
2022-12-03T05:20:03.059Z,12.20
2022-12-03T05:21:03.055Z,12.30
2022-12-03T05:22:03.034Z,11.50
2022-12-03T05:23:03.092Z,11.00
2022-12-03T05:24:03.010Z,12.60
2022-12-03T05:25:02.995Z,12.10
2022-12-03T05:26:02.965Z,11.60
2022-12-03T05:27:03.020Z,11.90
2022-12-03T05:28:02.934Z,12.10
2022-12-03T05:29:02.977Z,11.30
2022-12-03T05:30:02.922Z,12.60
2022-12-03T05:36:24.298Z,15.50
2022-12-03T05:37:23.993Z,13.20
2022-12-03T05:38:23.999Z,12.10
2022-12-03T05:39:24.015Z,13.00
2022-12-03T05:40:23.954Z,12.30
2022-12-03T05:41:24.043Z,12.00
2022-12-03T05:42:23.962Z,13.20
2022-12-03T05:43:23.921Z,12.50
2022-12-03T05:44:23.994Z,13.00
2022-12-03T05:45:23.882Z,12.30
2022-12-03T05:46:23.983Z,11.90
2022-12-03T05:47:23.888Z,11.70
2022-12-03T05:48:23.912Z,12.70
2022-12-03T05:49:23.852Z,11.70
2022-12-03T05:50:23.825Z,12.50
2022-12-03T05:51:23.844Z,12.50
2022-12-03T05:52:23.819Z,12.90
2022-12-03T05:53:23.855Z,11.60
2022-12-03T05:54:23.862Z,12.40
2022-12-03T05:55:23.784Z,13.50
2022-12-03T05:56:23.758Z,13.20
2022-12-03T05:57:23.750Z,12.50
2022-12-03T05:58:23.760Z,12.70
2022-12-03T05:59:23.691Z,12.50
2022-12-03T06:00:23.721Z,13.10
2022-12-03T06:01:23.660Z,12.80
2022-12-03T06:02:23.856Z,13.80
2022-12-03T06:03:23.801Z,13.70
2022-12-03T06:04:23.719Z,12.30
2022-12-03T06:05:23.631Z,11.60
2022-12-03T06:06:23.631Z,12.80
2022-12-03T06:07:23.604Z,13.40
2022-12-03T06:08:23.594Z,13.30
2022-12-03T06:09:23.571Z,12.20
2022-12-03T06:10:23.582Z,12.70
2022-12-03T06:11:23.540Z,12.70
2022-12-03T06:12:23.531Z,12.60
2022-12-03T06:13:23.569Z,13.30
2022-12-03T06:14:23.531Z,12.00
2022-12-03T06:15:23.484Z,12.50
2022-12-03T06:16:23.561Z,13.20
2022-12-03T06:17:23.515Z,12.60
2022-12-03T06:18:23.453Z,12.60
2022-12-03T06:19:23.417Z,12.70
2022-12-03T06:20:23.422Z,13.30
2022-12-03T06:21:23.447Z,13.40
2022-12-03T06:22:23.412Z,13.10
2022-12-03T06:23:23.403Z,13.10
2022-12-03T06:24:23.367Z,12.20
2022-12-03T06:25:23.388Z,12.00
2022-12-03T06:26:23.334Z,11.90
2022-12-03T06:27:23.344Z,12.20
2022-12-03T06:28:23.344Z,12.60
2022-12-03T06:29:23.311Z,12.70
2022-12-03T06:30:23.301Z,12.50
2022-12-03T06:31:23.356Z,12.20
2022-12-03T06:32:23.274Z,12.30
2022-12-03T06:33:23.253Z,13.70
2022-12-03T06:34:23.305Z,12.00
2022-12-03T06:35:23.247Z,11.80
2022-12-03T06:36:23.635Z,12.70
2022-12-03T06:37:23.227Z,12.90
2022-12-03T06:38:23.270Z,12.50
2022-12-03T06:39:23.241Z,12.50
2022-12-03T06:40:23.166Z,12.10
2022-12-03T06:41:23.146Z,12.80
2022-12-03T06:42:23.153Z,12.10
2022-12-03T06:43:23.135Z,12.20
2022-12-03T06:44:23.156Z,12.10
2022-12-03T06:45:23.226Z,12.20
2022-12-03T06:46:23.117Z,12.20
2022-12-03T06:47:23.075Z,12.30
2022-12-03T06:48:23.096Z,12.80
2022-12-03T06:49:23.079Z,12.10
2022-12-03T06:50:23.041Z,12.70
2022-12-03T06:51:23.027Z,13.20
2022-12-03T06:52:23.016Z,13.00
2022-12-03T06:53:23.016Z,12.10
2022-12-03T06:54:23.007Z,12.30
2022-12-03T06:55:23.002Z,12.40
2022-12-03T06:56:22.999Z,12.00
2022-12-03T06:57:22.953Z,12.20
2022-12-03T06:58:22.937Z,12.00
2022-12-03T06:59:22.907Z,12.20
2022-12-03T07:00:22.916Z,12.00
2022-12-03T07:01:22.979Z,11.10
2022-12-03T07:02:23.056Z,11.80
2022-12-03T07:03:22.946Z,12.30
2022-12-03T07:04:22.849Z,12.20
2022-12-03T07:05:22.878Z,12.20
2022-12-03T07:06:22.840Z,11.50
2022-12-03T07:07:22.848Z,11.40
2022-12-03T07:08:22.828Z,12.10
2022-12-03T07:09:22.799Z,12.60
2022-12-03T07:10:22.817Z,11.80
2022-12-03T07:11:22.762Z,12.20
2022-12-03T07:12:22.798Z,12.10
2022-12-03T07:13:22.742Z,12.80
2022-12-03T07:14:22.742Z,11.90
2022-12-03T07:15:22.729Z,10.60
2022-12-03T07:16:22.764Z,11.90
2022-12-03T07:17:22.710Z,12.00
2022-12-03T07:18:22.767Z,11.80
2022-12-03T07:19:25.249Z,11.60
2022-12-03T07:20:23.649Z,11.80
2022-12-03T07:21:22.672Z,12.10
2022-12-03T07:22:22.627Z,11.60
2022-12-03T07:23:22.621Z,11.60
2022-12-03T07:24:22.589Z,11.90
2022-12-03T07:25:23.712Z,11.30
2022-12-03T07:26:22.584Z,12.20
2022-12-03T07:27:22.553Z,12.00
2022-12-03T07:28:22.580Z,11.30
2022-12-03T07:29:22.530Z,10.80
2022-12-03T07:30:22.550Z,11.50
2022-12-03T07:31:22.534Z,12.40
2022-12-03T07:32:22.501Z,12.00
2022-12-03T07:33:22.470Z,12.00
2022-12-03T07:34:22.516Z,12.30
2022-12-03T07:35:22.444Z,11.40
2022-12-03T07:36:22.432Z,12.10
2022-12-03T07:37:23.451Z,11.80
2022-12-03T07:38:22.430Z,11.30
2022-12-03T07:39:22.483Z,11.30
2022-12-03T07:40:22.377Z,11.10
2022-12-03T07:41:22.361Z,11.70
2022-12-03T07:42:22.353Z,11.30
2022-12-03T07:43:22.374Z,11.30
2022-12-03T07:44:22.351Z,11.90
2022-12-03T07:45:22.318Z,10.90
2022-12-03T07:46:22.377Z,12.40
2022-12-03T07:47:31.242Z,12.60
2022-12-03T07:49:52.108Z,12.30
2022-12-03T07:50:51.835Z,12.50
2022-12-03T07:52:02.379Z,12.50
2022-12-03T07:53:02.109Z,12.70
2022-12-03T07:53:51.726Z,12.00
2022-12-03T07:54:52.147Z,12.90
2022-12-03T07:55:51.676Z,12.80
2022-12-03T07:56:54.399Z,13.90
2022-12-03T07:57:52.695Z,12.40
2022-12-03T07:58:51.687Z,12.50
2022-12-03T07:59:51.806Z,12.10
2022-12-03T08:00:51.675Z,11.50
2022-12-03T08:01:51.630Z,13.00
2022-12-03T08:02:51.644Z,13.60
2022-12-03T08:03:51.622Z,11.70
2022-12-03T08:04:52.044Z,12.40
2022-12-03T08:05:51.541Z,12.00
2022-12-03T08:06:51.534Z,12.00
2022-12-03T08:07:51.581Z,11.50
2022-12-03T08:08:51.540Z,11.30
2022-12-03T08:09:51.495Z,12.30
2022-12-03T08:10:51.555Z,13.10
2022-12-03T08:11:51.560Z,12.20
2022-12-03T08:12:51.455Z,12.90
2022-12-03T08:13:51.471Z,11.90
2022-12-03T08:14:51.616Z,12.60
2022-12-03T08:15:51.457Z,12.30
2022-12-03T08:16:51.501Z,12.20
2022-12-03T08:17:51.391Z,12.80
2022-12-03T08:18:51.415Z,11.70
2022-12-03T08:19:51.390Z,12.40
2022-12-03T08:20:51.391Z,11.70
2022-12-03T08:21:55.193Z,11.20
2022-12-03T08:22:52.375Z,11.70
2022-12-03T08:23:51.328Z,12.30
2022-12-03T08:24:51.552Z,11.90
2022-12-03T08:25:51.335Z,11.60
2022-12-03T08:26:51.277Z,11.80
2022-12-03T08:27:51.286Z,11.60
2022-12-03T08:28:51.261Z,10.90
2022-12-03T08:29:51.237Z,10.90
2022-12-03T08:30:51.257Z,11.50
2022-12-03T08:31:51.285Z,10.40
2022-12-03T08:32:51.265Z,11.40
2022-12-03T08:33:51.216Z,10.80
2022-12-03T08:34:51.489Z,10.00
2022-12-03T08:35:51.346Z,10.90
2022-12-03T08:36:51.165Z,11.00
2022-12-03T08:37:51.150Z,10.40
2022-12-03T08:38:51.149Z,10.20
2022-12-03T08:39:51.121Z,11.50
2022-12-03T08:40:51.094Z,11.30
2022-12-03T08:41:51.128Z,11.20
2022-12-03T08:42:51.088Z,10.40
2022-12-03T08:43:51.070Z,10.30
2022-12-03T08:44:51.227Z,10.50
2022-12-03T08:45:51.089Z,10.50
2022-12-03T08:46:51.026Z,10.60
2022-12-03T08:47:51.019Z,10.70
2022-12-03T08:48:51.000Z,10.10
2022-12-03T08:49:50.980Z,10.20
2022-12-03T08:50:50.970Z,10.50
2022-12-03T08:51:51.083Z,11.00
2022-12-03T08:52:50.950Z,10.70
2022-12-03T08:53:52.516Z,10.90
2022-12-03T08:54:51.315Z,10.50
2022-12-03T08:55:51.108Z,10.70
2022-12-03T08:56:50.886Z,10.60
2022-12-03T08:57:50.870Z,11.50
2022-12-03T08:58:50.859Z,10.10
2022-12-03T08:59:50.871Z,11.10
2022-12-03T09:00:50.984Z,10.70
2022-12-03T09:01:50.861Z,9.50
2022-12-03T09:02:51.083Z,10.30
2022-12-03T09:03:50.855Z,9.70
2022-12-03T09:04:50.937Z,11.40
2022-12-03T09:08:21.973Z,12.30
2022-12-03T09:09:21.675Z,10.50
2022-12-03T09:10:21.711Z,10.50
2022-12-03T09:11:22.369Z,10.30
2022-12-03T09:12:21.738Z,10.50
2022-12-03T09:13:21.632Z,10.70
2022-12-03T09:14:21.626Z,11.50
2022-12-03T09:15:21.584Z,11.50
2022-12-03T09:16:21.623Z,10.60
2022-12-03T09:17:21.573Z,10.90
2022-12-03T09:18:21.611Z,10.60
2022-12-03T09:19:21.635Z,11.50
2022-12-03T09:20:21.575Z,11.30
2022-12-03T09:21:21.565Z,10.70
2022-12-03T09:22:21.482Z,10.90
2022-12-03T09:23:21.499Z,10.70
2022-12-03T09:24:21.445Z,11.70
2022-12-03T09:25:21.475Z,11.30
2022-12-03T09:26:21.452Z,11.00
2022-12-03T09:27:21.433Z,11.80
2022-12-03T09:28:21.406Z,10.30
2022-12-03T09:29:21.440Z,10.20
2022-12-03T09:30:21.432Z,11.80
2022-12-03T09:31:21.554Z,10.90
2022-12-03T09:32:21.416Z,10.90
2022-12-03T09:33:21.351Z,11.00
2022-12-03T09:34:21.347Z,12.10
2022-12-03T09:35:21.380Z,10.90
2022-12-03T09:36:21.331Z,12.10
2022-12-03T09:37:21.339Z,11.50
2022-12-03T09:38:21.350Z,11.80
2022-12-03T09:39:21.342Z,12.20
2022-12-03T09:40:21.239Z,11.70
2022-12-03T09:41:21.254Z,11.70
2022-12-03T09:42:21.227Z,11.90
2022-12-03T09:43:21.308Z,12.20
2022-12-03T09:44:21.279Z,11.80
2022-12-03T09:45:21.245Z,12.00
2022-12-03T09:46:21.231Z,11.90
2022-12-03T09:47:21.205Z,11.90
2022-12-03T09:48:21.190Z,11.30
2022-12-03T09:49:21.165Z,11.50
2022-12-03T09:50:21.172Z,11.30
2022-12-03T09:51:21.132Z,12.10
2022-12-03T09:52:21.093Z,11.50
2022-12-03T09:53:21.092Z,11.60
2022-12-03T09:54:21.095Z,12.40
2022-12-03T09:55:21.096Z,11.70
2022-12-03T09:56:21.060Z,11.70
2022-12-03T09:57:21.055Z,11.80
2022-12-03T09:58:21.018Z,12.90
2022-12-03T09:59:21.034Z,11.70
2022-12-03T10:00:21.037Z,12.40
2022-12-03T10:01:21.136Z,12.20
2022-12-03T10:02:20.975Z,12.30
2022-12-03T10:03:24.100Z,12.10
2022-12-03T10:04:22.039Z,11.90
2022-12-03T10:05:21.012Z,11.60
2022-12-03T10:06:20.898Z,11.90
2022-12-03T10:07:20.920Z,11.80
2022-12-03T10:08:20.985Z,12.50
2022-12-03T10:09:20.899Z,12.70
2022-12-03T10:10:20.890Z,12.50
2022-12-03T10:11:21.811Z,12.40
2022-12-03T10:12:20.857Z,11.60
2022-12-03T10:13:25.497Z,12.20
2022-12-03T10:14:21.795Z,12.50
2022-12-03T10:15:21.040Z,11.80
2022-12-03T10:16:20.914Z,11.80
2022-12-03T10:17:20.842Z,12.70
2022-12-03T10:18:20.771Z,13.10
2022-12-03T10:19:20.752Z,11.60
2022-12-03T10:20:20.835Z,12.10
2022-12-03T10:21:20.818Z,11.90
2022-12-03T10:22:20.849Z,12.40
2022-12-03T10:23:20.734Z,11.80
2022-12-03T10:24:21.667Z,12.10
2022-12-03T10:25:20.865Z,12.60
2022-12-03T10:26:33.283Z,12.40
2022-12-03T10:27:20.642Z,12.30
2022-12-03T10:28:20.675Z,11.80
2022-12-03T10:29:20.618Z,12.30
2022-12-03T10:30:21.567Z,11.80
2022-12-03T10:31:20.693Z,11.00
2022-12-03T10:32:20.599Z,11.10
2022-12-03T10:33:20.623Z,12.70
2022-12-03T10:34:20.539Z,11.80
2022-12-03T10:35:20.551Z,12.30
2022-12-03T10:36:20.561Z,12.30
2022-12-03T10:37:20.525Z,11.40
2022-12-03T10:38:20.487Z,11.40
2022-12-03T10:39:20.493Z,12.10
2022-12-03T10:40:20.479Z,12.90
2022-12-03T10:41:20.465Z,12.90
2022-12-03T10:42:20.417Z,12.20
2022-12-03T10:43:20.445Z,12.30
2022-12-03T10:44:20.497Z,12.00
2022-12-03T10:45:20.429Z,12.20
2022-12-03T10:46:20.567Z,12.80
2022-12-03T10:47:20.522Z,12.40
2022-12-03T10:48:20.401Z,12.60
2022-12-03T10:49:20.412Z,12.00
2022-12-03T10:50:20.440Z,12.30
2022-12-03T10:51:20.321Z,12.10
2022-12-03T10:52:25.450Z,12.60
2022-12-03T10:53:21.297Z,11.10
2022-12-03T10:54:20.373Z,11.90
2022-12-03T10:55:20.311Z,11.10
2022-12-03T10:56:20.433Z,12.30
2022-12-03T10:57:20.294Z,12.10
2022-12-03T10:58:20.286Z,12.30
2022-12-03T10:59:20.247Z,12.00
2022-12-03T11:00:20.910Z,11.80
2022-12-03T11:01:20.305Z,12.10
2022-12-03T11:02:20.159Z,12.70
2022-12-03T11:03:20.285Z,12.80
2022-12-03T11:04:20.252Z,13.00
2022-12-03T11:05:21.289Z,13.30
2022-12-03T11:06:20.123Z,12.40
2022-12-03T11:07:20.124Z,13.10
2022-12-03T11:08:20.164Z,13.30
2022-12-03T11:09:20.204Z,13.40
2022-12-03T11:10:21.017Z,12.80
2022-12-03T11:11:20.053Z,14.20
2022-12-03T11:12:20.044Z,13.00
2022-12-03T11:13:20.049Z,13.40
2022-12-03T11:14:23.049Z,13.70
2022-12-03T11:15:19.972Z,13.20
2022-12-03T11:16:20.065Z,13.30
2022-12-03T11:17:19.988Z,13.40
2022-12-03T11:18:19.962Z,14.00
2022-12-03T11:19:20.242Z,13.90
2022-12-03T11:20:22.816Z,13.10
2022-12-03T11:21:19.909Z,13.80
2022-12-03T11:22:19.916Z,13.30
2022-12-03T11:23:19.918Z,13.60
2022-12-03T11:24:19.947Z,14.60
2022-12-03T11:25:19.868Z,13.60
2022-12-03T11:26:20.087Z,14.00
2022-12-03T11:27:19.875Z,13.90
2022-12-03T11:28:19.881Z,13.80
2022-12-03T11:29:19.826Z,13.50
2022-12-03T11:31:10.155Z,16.30
2022-12-03T11:32:10.102Z,17.70
2022-12-03T11:33:10.078Z,13.20
2022-12-03T11:34:10.077Z,13.80
2022-12-03T11:35:10.076Z,14.00
2022-12-03T11:36:10.052Z,13.80
2022-12-03T11:37:10.025Z,14.30
2022-12-03T11:38:10.018Z,13.30
2022-12-03T11:39:09.997Z,13.40
2022-12-03T11:40:10.012Z,14.10
2022-12-03T11:41:09.974Z,13.10
2022-12-03T11:42:09.997Z,14.20
2022-12-03T11:43:09.938Z,13.50
2022-12-03T11:44:09.941Z,14.20
2022-12-03T11:45:09.966Z,13.40
2022-12-03T11:46:09.961Z,14.00
2022-12-03T11:47:09.948Z,13.70
2022-12-03T11:48:09.947Z,14.30
2022-12-03T11:49:09.864Z,13.30
2022-12-03T11:50:09.852Z,13.30
2022-12-03T11:51:09.900Z,12.60
2022-12-03T11:52:09.842Z,12.80
2022-12-03T11:53:09.819Z,13.10
2022-12-03T11:54:09.816Z,14.50
2022-12-03T11:55:09.799Z,14.00
2022-12-03T11:56:09.798Z,14.00
2022-12-03T11:57:09.760Z,12.60
2022-12-03T11:58:09.961Z,13.50
2022-12-03T11:59:09.752Z,13.50
2022-12-03T12:00:09.728Z,12.80
2022-12-03T12:01:09.730Z,13.30
2022-12-03T12:02:09.711Z,13.60
2022-12-03T12:03:09.831Z,12.90
2022-12-03T12:04:09.755Z,12.50
2022-12-03T12:05:09.678Z,12.90
2022-12-03T12:06:09.687Z,12.70
2022-12-03T12:07:10.333Z,13.50
2022-12-03T12:08:09.689Z,12.20
2022-12-03T12:09:09.665Z,12.30
2022-12-03T12:10:09.717Z,12.30
2022-12-03T12:11:09.604Z,12.00
2022-12-03T12:12:09.582Z,12.60
2022-12-03T12:13:09.552Z,12.70
2022-12-03T12:14:09.538Z,13.60
2022-12-03T12:15:09.574Z,12.90
2022-12-03T12:16:09.546Z,13.10
2022-12-03T12:17:09.489Z,12.50
2022-12-03T12:18:09.489Z,11.70
2022-12-03T12:19:09.473Z,11.70
2022-12-03T12:20:09.497Z,12.50
2022-12-03T12:21:09.454Z,12.40
2022-12-03T12:22:09.434Z,13.50
2022-12-03T12:23:09.477Z,12.50
2022-12-03T12:24:09.648Z,12.90
2022-12-03T12:25:09.419Z,12.20
2022-12-03T12:26:09.531Z,13.20
2022-12-03T12:27:09.353Z,13.40
2022-12-03T12:28:09.408Z,13.00
2022-12-03T12:29:09.431Z,12.50
2022-12-03T12:30:09.321Z,12.60
2022-12-03T12:31:09.399Z,13.70
2022-12-03T12:32:09.512Z,12.70
2022-12-03T12:33:09.306Z,12.50
2022-12-03T12:34:09.290Z,13.70
2022-12-03T12:35:09.274Z,12.70
2022-12-03T12:36:09.251Z,13.10
2022-12-03T12:37:09.248Z,12.80
2022-12-03T12:38:09.261Z,13.50
2022-12-03T12:39:09.257Z,13.00
2022-12-03T12:40:09.260Z,12.90
2022-12-03T12:41:09.267Z,13.50
2022-12-03T12:42:09.215Z,13.90
2022-12-03T12:43:14.240Z,12.70
2022-12-03T12:44:10.179Z,13.80
2022-12-03T12:45:09.125Z,13.10
2022-12-03T12:46:31.423Z,13.50
2022-12-03T12:47:10.190Z,12.50
2022-12-03T12:48:09.153Z,13.30
2022-12-03T12:49:09.090Z,13.50
2022-12-03T12:50:09.069Z,13.50
2022-12-03T12:51:09.034Z,13.60
2022-12-03T12:52:09.042Z,13.50
2022-12-03T12:53:09.100Z,13.60
2022-12-03T12:54:09.250Z,13.60
2022-12-03T12:55:09.235Z,14.60
2022-12-03T12:56:09.007Z,14.90
2022-12-03T12:57:09.000Z,15.40
2022-12-03T12:58:08.937Z,14.60
2022-12-03T12:59:08.966Z,14.30
2022-12-03T13:00:08.932Z,14.50
2022-12-03T13:01:09.072Z,15.10
2022-12-03T13:02:10.378Z,15.10
2022-12-03T13:03:08.877Z,14.10
2022-12-03T13:04:08.886Z,15.00
2022-12-03T13:05:08.872Z,15.00
2022-12-03T13:06:08.848Z,14.90
2022-12-03T13:07:08.890Z,15.10
2022-12-03T13:08:10.447Z,13.90
2022-12-03T13:09:08.833Z,14.50
2022-12-03T13:10:08.822Z,14.40
2022-12-03T13:11:08.804Z,14.80
2022-12-03T13:12:08.776Z,13.80
2022-12-03T13:13:08.763Z,14.90
2022-12-03T13:14:08.779Z,14.60
2022-12-03T13:15:08.740Z,14.60
2022-12-03T13:16:08.809Z,13.80
2022-12-03T13:17:08.708Z,14.80
2022-12-03T13:18:08.683Z,14.20
2022-12-03T13:19:08.667Z,15.00
2022-12-03T13:20:09.052Z,15.50
2022-12-03T13:21:08.658Z,15.20
2022-12-03T13:22:08.651Z,15.10
2022-12-03T13:23:08.630Z,15.30
2022-12-03T13:24:11.160Z,15.20
2022-12-03T13:25:08.654Z,15.00
2022-12-03T13:26:25.803Z,15.30
2022-12-03T13:27:09.597Z,15.00
2022-12-03T13:28:08.566Z,15.30
2022-12-03T13:29:08.545Z,14.70
2022-12-03T13:30:08.539Z,14.40
2022-12-03T13:31:08.675Z,15.20
2022-12-03T13:32:08.562Z,14.10
2022-12-03T13:33:08.517Z,14.40
2022-12-03T13:34:09.451Z,14.40
2022-12-03T13:35:08.525Z,15.00
2022-12-03T13:36:08.505Z,14.40
2022-12-03T13:37:08.424Z,14.50
2022-12-03T13:38:08.625Z,14.90
2022-12-03T13:39:08.446Z,14.80
2022-12-03T13:40:08.468Z,14.60
2022-12-03T13:41:08.415Z,13.90
2022-12-03T13:42:08.469Z,13.70
2022-12-03T13:43:08.369Z,14.40
2022-12-03T13:44:08.355Z,13.80
2022-12-03T13:45:08.332Z,14.30
2022-12-03T13:46:08.359Z,13.90
2022-12-03T13:47:08.292Z,13.00
2022-12-03T13:48:08.315Z,12.80
2022-12-03T13:49:08.376Z,13.70
2022-12-03T13:50:08.357Z,12.60
2022-12-03T13:51:08.271Z,14.10
2022-12-03T13:52:08.241Z,13.60
2022-12-03T13:53:08.237Z,13.20
2022-12-03T13:54:12.874Z,12.90
2022-12-03T13:55:09.199Z,12.30
2022-12-03T13:56:08.219Z,13.30
2022-12-03T13:57:08.165Z,12.70
2022-12-03T13:58:08.148Z,12.70
2022-12-03T13:59:08.183Z,13.60
2022-12-03T14:00:08.145Z,13.30
2022-12-03T14:01:08.196Z,12.50
2022-12-03T14:02:08.265Z,14.30
2022-12-03T14:03:08.124Z,12.20
2022-12-03T14:04:08.116Z,12.50
2022-12-03T14:05:08.075Z,13.30
2022-12-03T14:06:08.040Z,13.10
2022-12-03T14:07:08.106Z,12.30
2022-12-03T14:08:08.110Z,13.00
2022-12-03T14:09:08.070Z,13.80
2022-12-03T14:10:08.080Z,12.30
2022-12-03T14:11:07.983Z,13.80
2022-12-03T14:12:08.028Z,13.70
2022-12-03T14:13:07.996Z,13.60
2022-12-03T14:14:07.936Z,12.40
2022-12-03T14:15:08.024Z,13.80
2022-12-03T14:16:08.049Z,13.60
2022-12-03T14:17:07.987Z,13.30
2022-12-03T14:18:07.911Z,13.50
2022-12-03T14:19:07.871Z,12.70
2022-12-03T14:20:07.888Z,13.00
2022-12-03T14:21:07.905Z,13.60
2022-12-03T14:22:08.014Z,13.50
2022-12-03T14:23:07.879Z,13.70
2022-12-03T14:24:07.803Z,14.00
2022-12-03T14:25:07.873Z,13.60
2022-12-03T14:26:07.774Z,13.40
2022-12-03T14:27:07.760Z,13.20
2022-12-03T14:28:07.813Z,12.70
2022-12-03T14:29:09.118Z,12.20
2022-12-03T14:30:07.758Z,12.30
2022-12-03T14:31:07.732Z,12.20
2022-12-03T14:32:07.772Z,13.30
2022-12-03T14:33:07.730Z,12.50
2022-12-03T14:34:07.706Z,12.20
2022-12-03T14:35:10.076Z,12.10
2022-12-03T14:36:07.778Z,12.70
2022-12-03T14:37:07.628Z,12.90
2022-12-03T14:38:07.623Z,12.00
2022-12-03T14:39:07.727Z,13.10
2022-12-03T14:40:07.691Z,13.20
2022-12-03T14:41:07.606Z,12.50
2022-12-03T14:42:07.730Z,12.90
2022-12-03T14:43:07.560Z,12.90
2022-12-03T14:44:07.538Z,12.70
2022-12-03T14:45:07.528Z,12.50
2022-12-03T14:46:07.598Z,13.20
2022-12-03T14:47:07.539Z,12.00
2022-12-03T14:48:07.527Z,12.70
2022-12-03T14:49:07.512Z,12.60
2022-12-03T14:50:07.552Z,12.90
2022-12-03T14:51:07.484Z,13.50
2022-12-03T14:52:11.350Z,13.70
2022-12-03T14:53:07.481Z,12.40
2022-12-03T14:54:07.477Z,11.90
2022-12-03T14:55:07.420Z,12.80
2022-12-03T14:56:07.387Z,13.20
2022-12-03T14:57:07.383Z,12.50
2022-12-03T14:58:07.366Z,12.80
2022-12-03T14:59:07.338Z,12.30
2022-12-03T15:00:07.533Z,13.00
2022-12-03T15:01:07.528Z,12.60
2022-12-03T15:02:07.340Z,13.30
2022-12-03T15:03:07.356Z,12.40
2022-12-03T15:04:07.290Z,14.00
2022-12-03T15:05:07.280Z,13.70
2022-12-03T15:06:07.250Z,13.10
2022-12-03T15:07:07.237Z,12.90
2022-12-03T15:08:07.302Z,13.30
2022-12-03T15:09:07.242Z,12.60
2022-12-03T15:10:07.236Z,12.90
2022-12-03T15:11:07.192Z,12.90
2022-12-03T15:12:07.172Z,13.60
2022-12-03T15:13:07.178Z,13.30
2022-12-03T15:14:07.159Z,13.30
2022-12-03T15:15:07.185Z,13.30
2022-12-03T15:16:07.168Z,12.10
2022-12-03T15:17:07.208Z,12.80
2022-12-03T15:18:07.116Z,12.20
2022-12-03T15:19:07.083Z,13.70
2022-12-03T15:20:07.122Z,13.10
2022-12-03T15:21:07.127Z,13.10
2022-12-03T15:22:07.047Z,12.80
2022-12-03T15:23:12.747Z,13.20
2022-12-03T15:24:08.009Z,12.60
2022-12-03T15:25:07.050Z,12.60
2022-12-03T15:26:06.977Z,13.10
2022-12-03T15:27:06.990Z,12.60
2022-12-03T15:28:06.966Z,12.60
2022-12-03T15:29:06.974Z,12.70
2022-12-03T15:30:06.950Z,12.10
2022-12-03T15:31:07.020Z,13.20
2022-12-03T15:32:06.894Z,13.40
2022-12-03T15:33:06.934Z,12.80
2022-12-03T15:34:06.904Z,13.50
2022-12-03T15:35:06.857Z,13.30
2022-12-03T15:36:06.903Z,12.30
2022-12-03T15:37:06.874Z,13.00
2022-12-03T15:38:06.846Z,13.30
2022-12-03T15:39:06.814Z,13.20
2022-12-03T15:40:06.825Z,13.10
2022-12-03T15:41:06.834Z,12.60
2022-12-03T15:42:06.761Z,13.00
2022-12-03T15:43:06.761Z,13.00
2022-12-03T15:44:06.732Z,13.40
2022-12-03T15:45:09.588Z,13.70
2022-12-03T15:46:07.839Z,13.30